Flight Track Log - Related Links

Times and Time Zones

All times are in EDT time to prevent confusion due to time zone crossing. See the DAL3691 flight status page for this flight to view local times or setup timezone preferences in your user account.

Time Position Orientation Groundspeed Altitude Reporting Facility
EDT Latitude Longitude Course Direction KTS MPH feet Rate Location/Type
Fri 08:22:07 AM 44.7283 -85.6222 134° Southeast 176 203 2,200  Level Minneapolis Center
Fri 08:23:08 AM 44.6831 -85.6139 173° South 205 236 4,000 2,683 Climbing Minneapolis Center
Fri 08:24:00 AM 44.5384 -85.3854 138° Southeast  Level FlightAware Approximate
Fri 08:24:10 AM 44.6064 -85.5944 170° South 225 259 7,700  Level Minneapolis Center
Fri 08:25:00 AM 44.4782 -85.3101 138° Southeast  Level FlightAware Approximate
Fri 08:25:11 AM 44.5492 -85.5106 134° Southeast 248 285 10,300  Level Minneapolis Center
Fri 08:26:00 AM 44.4180 -85.2349 138° Southeast  Level FlightAware Approximate
Fri 08:26:13 AM 44.4881 -85.4225 134° Southeast 309 356 10,900  Level Minneapolis Center
Fri 08:27:00 AM 44.3615 -85.1544 134° Southeast  Level FlightAware Approximate
Fri 08:27:15 AM 44.4194 -85.3225 134° Southeast 351 404 12,600  Level Minneapolis Center
Fri 08:28:17 AM 44.3464 -85.2197 135° Southeast 368 423 14,200 1,561 Climbing Minneapolis Center
Fri 08:29:18 AM 44.2731 -85.1156 134° Southeast 375 432 15,800 1,512 Climbing Minneapolis Center
Fri 08:30:20 AM 44.1986 -85.0103 135° Southeast 379 436 17,300 1,220 Climbing Minneapolis Center
Fri 08:31:21 AM 44.1383 -84.9253 135° Southeast 384 442 18,300 829 Climbing Minneapolis Center
Fri 08:32:23 AM 44.0289 -84.7708 135° Southeast 398 458 19,000 339 Climbing Minneapolis Center
Fri 08:33:25 AM 43.9558 -84.6667 134° Southeast 401 461 19,000  Level Minneapolis Center
Fri 08:34:27 AM 43.8775 -84.5558 134° Southeast 401 461 19,000  Level Minneapolis Center
Fri 08:35:29 AM 43.7989 -84.4467 135° Southeast 401 461 19,000  Level Minneapolis Center
Fri 08:36:30 AM 43.7208 -84.3386 135° Southeast 399 459 19,000  Level Minneapolis Center
Fri 08:37:32 AM 43.6428 -84.2294 135° Southeast 399 459 19,000  Level Minneapolis Center
Fri 08:38:46 AM 43.5483 -84.1003 135° Southeast 399 459 19,000  Level Minneapolis Center
Fri 08:39:48 AM 43.4264 -84.0289 157° South 401 461 19,000 -97 Level Minneapolis Center
Fri 08:40:50 AM 43.3225 -83.9792 161° South 396 456 18,800 -968 Descending Minneapolis Center
Fri 08:41:52 AM 43.2181 -83.9308 161° South 396 456 17,000 -1,548 Descending Minneapolis Center
Fri 08:42:54 AM 43.1181 -83.8836 161° South 388 447 15,600 -1,486 Descending Minneapolis Center
Fri 08:43:41 AM 43.0269 -83.8436 162° South 374 430 14,300 -1,475 Descending Cleveland Center
Fri 08:44:56 AM 42.9058 -83.7778 158° South 380 437 12,600 -1,022 Descending Cleveland Center
Fri 08:45:56 AM 42.8197 -83.7253 156° South 368 423 12,000 -800 Descending Cleveland Center
Fri 08:46:56 AM 42.7375 -83.6817 159° South 337 388 11,000 -1,250 Descending Cleveland Center
Fri 08:47:56 AM 42.6572 -83.6408 159° South 322 371 9,500 -1,500 Descending Cleveland Center
Fri 08:48:56 AM 42.5792 -83.6006 159° South 315 362 8,000 -1,500 Descending Cleveland Center
Fri 08:49:56 AM 42.5417 -83.5142 120° Southeast 255 293 6,500 -1,000 Descending Cleveland Center
Fri 08:50:56 AM 42.5503 -83.4214 83° East 226 260 6,000 -250 Descending Cleveland Center
Fri 08:51:56 AM 42.5567 -83.3344 84° East 221 254 6,000 -750 Level Cleveland Center
Fri 08:52:56 AM 42.5625 -83.2528 84° East 216 249 4,500 -822 Descending Cleveland Center
Fri 08:54:22 AM 42.5225 -83.1778 126° Southeast 212 244 4,000 -205 Descending Cleveland Center
Fri 08:55:22 AM 42.4661 -83.1897 189° South 210 242 4,000  Level Cleveland Center
Fri 08:56:23 AM 42.4172 -83.2269 209° Southwest 196 226 4,000 -98 Level Cleveland Center
Fri 08:57:24 AM 42.3644 -83.2642 208° Southwest 202 232 3,800 -197 Descending Cleveland Center

Login

Don't have an account? Register now (free) for customized features, flight alerts, and more!